Hlavní strana
METAR-TAF:

METAR-TAF

Letiště :

Perry-Foley Airport

Perry, Florida, Spojené státy americké

zeměpisná šířka: 30-04-19N, zeměpisná délka: 083-34-25W, výška: 13 m

Aktuální stav počasí

Zpráva byla vytvořena před 18 minutami, v 23:15 UTC
Bezvětří
Teplota 13°C
Vlhkost vzduchu 77%
Tlak 1019 hPa
Viditelnost: 16.1 km
Oblačno až skoro zataženo ve výšce 9000 ft
Zataženo ve výšce 11000 ft
slabé mrholení

METAR: K40J 262315Z AUTO 00000KT 10SM -DZ BKN090 OVC110 13/09 A3008 RMK AO2 T01330091

Čas: 18:33 (23:33 UTC)


TAF: chybějící

Stav a předpovědi počasí z více než 4 000 letišť (zprávy METAR a TAF).

Červené a žluté tečky na mapě představují dostupné meteorologické stanice.

Když kurzor umístíte na tečku, zobrazí se název stanice.

Pak kliknutím zobrazíte stav a předpověď počasí.

Chcete-li změnit mapu, kliknutím na zelené tlačítko se znaménkem +mapu přiblížíte, kliknutím na zelené tlačítko se znaménkem – mapu oddálíte a kliknutím na zelené šipky přejdete na sousední mapy.


METAR-TAF: